sensor_id;sensor_type;location;lat;lon;timestamp;P1;durP1;ratioP1;P2;durP2;ratioP2
37239;SDS011;23130;48.760;9.178;2023-04-03T00:00:25;5.10;;;2.67;;
37239;SDS011;23130;48.760;9.178;2023-04-03T00:02:51;4.13;;;2.67;;
37239;SDS011;23130;48.760;9.178;2023-04-03T00:05:16;5.28;;;2.35;;
37239;SDS011;23130;48.760;9.178;2023-04-03T00:07:42;4.38;;;2.45;;
37239;SDS011;23130;48.760;9.178;2023-04-03T00:10:07;6.05;;;2.20;;
37239;SDS011;23130;48.760;9.178;2023-04-03T00:12:33;5.40;;;2.40;;
37239;SDS011;23130;48.760;9.178;2023-04-03T00:14:59;5.28;;;2.47;;
37239;SDS011;23130;48.760;9.178;2023-04-03T00:17:25;5.45;;;2.53;;
37239;SDS011;23130;48.760;9.178;2023-04-03T00:19:50;6.15;;;2.70;;
37239;SDS011;23130;48.760;9.178;2023-04-03T00:22:16;6.05;;;2.58;;
37239;SDS011;23130;48.760;9.178;2023-04-03T00:24:41;4.70;;;2.20;;
37239;SDS011;23130;48.760;9.178;2023-04-03T00:27:07;4.15;;;2.47;;
37239;SDS011;23130;48.760;9.178;2023-04-03T00:29:32;3.55;;;2.15;;
37239;SDS011;23130;48.760;9.178;2023-04-03T00:31:58;4.03;;;1.98;;
37239;SDS011;23130;48.760;9.178;2023-04-03T00:34:24;4.75;;;2.30;;
37239;SDS011;23130;48.760;9.178;2023-04-03T00:36:50;5.15;;;2.42;;
37239;SDS011;23130;48.760;9.178;2023-04-03T00:39:16;3.88;;;2.22;;
37239;SDS011;23130;48.760;9.178;2023-04-03T00:41:42;4.45;;;2.40;;
37239;SDS011;23130;48.760;9.178;2023-04-03T00:46:57;3.22;;;1.83;;
37239;SDS011;23130;48.760;9.178;2023-04-03T00:49:23;2.80;;;1.88;;
37239;SDS011;23130;48.760;9.178;2023-04-03T00:51:50;5.07;;;3.00;;
37239;SDS011;23130;48.760;9.178;2023-04-03T00:54:17;5.60;;;2.40;;
37239;SDS011;23130;48.760;9.178;2023-04-03T00:56:43;4.50;;;2.08;;
37239;SDS011;23130;48.760;9.178;2023-04-03T00:59:11;4.88;;;2.45;;
37239;SDS011;23130;48.760;9.178;2023-04-03T01:01:43;4.30;;;2.38;;
37239;SDS011;23130;48.760;9.178;2023-04-03T01:07:05;5.15;;;2.33;;
37239;SDS011;23130;48.760;9.178;2023-04-03T01:09:33;4.70;;;2.20;;
37239;SDS011;23130;48.760;9.178;2023-04-03T01:14:53;5.18;;;2.53;;
37239;SDS011;23130;48.760;9.178;2023-04-03T01:17:26;6.72;;;2.35;;
37239;SDS011;23130;48.760;9.178;2023-04-03T01:20:44;5.03;;;2.83;;
37239;SDS011;23130;48.760;9.178;2023-04-03T01:23:03;4.63;;;2.60;;
37239;SDS011;23130;48.760;9.178;2023-04-03T01:25:31;4.30;;;2.75;;
37239;SDS011;23130;48.760;9.178;2023-04-03T01:27:58;3.03;;;2.00;;
37239;SDS011;23130;48.760;9.178;2023-04-03T01:30:25;5.40;;;2.85;;
37239;SDS011;23130;48.760;9.178;2023-04-03T01:32:55;5.45;;;2.70;;
37239;SDS011;23130;48.760;9.178;2023-04-03T01:35:22;3.47;;;2.13;;
37239;SDS011;23130;48.760;9.178;2023-04-03T01:37:47;5.18;;;2.47;;
37239;SDS011;23130;48.760;9.178;2023-04-03T01:40:13;3.33;;;1.85;;
37239;SDS011;23130;48.760;9.178;2023-04-03T01:42:39;5.05;;;2.33;;
37239;SDS011;23130;48.760;9.178;2023-04-03T01:45:04;3.00;;;2.00;;
37239;SDS011;23130;48.760;9.178;2023-04-03T01:47:30;3.25;;;1.95;;
37239;SDS011;23130;48.760;9.178;2023-04-03T01:49:56;4.13;;;2.22;;
37239;SDS011;23130;48.760;9.178;2023-04-03T01:52:21;8.27;;;2.20;;
37239;SDS011;23130;48.760;9.178;2023-04-03T01:54:47;3.50;;;2.15;;
37239;SDS011;23130;48.760;9.178;2023-04-03T01:57:12;3.47;;;2.13;;
37239;SDS011;23130;48.760;9.178;2023-04-03T01:59:40;3.40;;;2.40;;
37239;SDS011;23130;48.760;9.178;2023-04-03T02:02:05;3.47;;;2.22;;
37239;SDS011;23130;48.760;9.178;2023-04-03T02:04:31;4.82;;;3.13;;
37239;SDS011;23130;48.760;9.178;2023-04-03T02:06:56;4.00;;;2.45;;
37239;SDS011;23130;48.760;9.178;2023-04-03T02:09:22;4.47;;;2.70;;
37239;SDS011;23130;48.760;9.178;2023-04-03T02:11:47;5.13;;;2.20;;
37239;SDS011;23130;48.760;9.178;2023-04-03T02:14:13;6.95;;;2.88;;
37239;SDS011;23130;48.760;9.178;2023-04-03T02:16:38;3.70;;;1.88;;
37239;SDS011;23130;48.760;9.178;2023-04-03T02:19:05;5.07;;;2.72;;
37239;SDS011;23130;48.760;9.178;2023-04-03T02:21:31;6.35;;;2.53;;
37239;SDS011;23130;48.760;9.178;2023-04-03T02:23:56;6.25;;;3.00;;
37239;SDS011;23130;48.760;9.178;2023-04-03T02:26:22;5.57;;;2.58;;
37239;SDS011;23130;48.760;9.178;2023-04-03T02:28:48;4.32;;;2.63;;
37239;SDS011;23130;48.760;9.178;2023-04-03T02:31:13;4.18;;;2.50;;
37239;SDS011;23130;48.760;9.178;2023-04-03T02:33:39;4.60;;;2.70;;
37239;SDS011;23130;48.760;9.178;2023-04-03T02:36:06;3.75;;;2.25;;
37239;SDS011;23130;48.760;9.178;2023-04-03T02:38:32;4.40;;;2.53;;
37239;SDS011;23130;48.760;9.178;2023-04-03T02:41:05;4.50;;;2.42;;
37239;SDS011;23130;48.760;9.178;2023-04-03T02:43:32;4.25;;;2.40;;
37239;SDS011;23130;48.760;9.178;2023-04-03T02:45:58;4.43;;;2.25;;
37239;SDS011;23130;48.760;9.178;2023-04-03T02:48:24;5.00;;;2.55;;
37239;SDS011;23130;48.760;9.178;2023-04-03T02:50:50;4.13;;;2.28;;
37239;SDS011;23130;48.760;9.178;2023-04-03T02:53:16;3.35;;;1.75;;
37239;SDS011;23130;48.760;9.178;2023-04-03T02:55:41;3.40;;;2.10;;
37239;SDS011;23130;48.760;9.178;2023-04-03T02:58:07;4.00;;;2.20;;
37239;SDS011;23130;48.760;9.178;2023-04-03T03:00:33;5.82;;;2.20;;
37239;SDS011;23130;48.760;9.178;2023-04-03T03:02:59;4.63;;;2.25;;
37239;SDS011;23130;48.760;9.178;2023-04-03T03:05:25;3.85;;;2.30;;
37239;SDS011;23130;48.760;9.178;2023-04-03T03:07:51;3.55;;;1.90;;
37239;SDS011;23130;48.760;9.178;2023-04-03T03:10:16;3.28;;;2.35;;
37239;SDS011;23130;48.760;9.178;2023-04-03T03:12:42;3.80;;;2.10;;
37239;SDS011;23130;48.760;9.178;2023-04-03T03:15:08;3.78;;;2.30;;
37239;SDS011;23130;48.760;9.178;2023-04-03T03:17:34;4.32;;;2.33;;
37239;SDS011;23130;48.760;9.178;2023-04-03T03:20:01;3.42;;;2.28;;
37239;SDS011;23130;48.760;9.178;2023-04-03T03:22:27;3.58;;;2.10;;
37239;SDS011;23130;48.760;9.178;2023-04-03T03:24:53;4.85;;;2.05;;
37239;SDS011;23130;48.760;9.178;2023-04-03T03:27:18;5.25;;;2.67;;
37239;SDS011;23130;48.760;9.178;2023-04-03T03:29:44;3.92;;;2.25;;
37239;SDS011;23130;48.760;9.178;2023-04-03T03:32:10;4.13;;;2.30;;
37239;SDS011;23130;48.760;9.178;2023-04-03T03:34:35;3.85;;;2.22;;
37239;SDS011;23130;48.760;9.178;2023-04-03T03:37:01;4.00;;;1.88;;
37239;SDS011;23130;48.760;9.178;2023-04-03T03:39:26;5.30;;;2.53;;
37239;SDS011;23130;48.760;9.178;2023-04-03T03:41:53;4.03;;;2.38;;
37239;SDS011;23130;48.760;9.178;2023-04-03T03:44:19;5.78;;;2.25;;
37239;SDS011;23130;48.760;9.178;2023-04-03T03:46:45;3.67;;;2.33;;
37239;SDS011;23130;48.760;9.178;2023-04-03T03:49:10;4.45;;;2.58;;
37239;SDS011;23130;48.760;9.178;2023-04-03T03:51:36;4.07;;;2.17;;
37239;SDS011;23130;48.760;9.178;2023-04-03T03:54:03;4.55;;;2.33;;
37239;SDS011;23130;48.760;9.178;2023-04-03T03:56:29;3.50;;;1.67;;
37239;SDS011;23130;48.760;9.178;2023-04-03T03:58:55;3.13;;;1.90;;
37239;SDS011;23130;48.760;9.178;2023-04-03T04:01:21;4.55;;;1.85;;
37239;SDS011;23130;48.760;9.178;2023-04-03T04:03:48;4.28;;;1.90;;
37239;SDS011;23130;48.760;9.178;2023-04-03T04:06:14;3.58;;;1.95;;
37239;SDS011;23130;48.760;9.178;2023-04-03T04:08:40;2.92;;;2.05;;
37239;SDS011;23130;48.760;9.178;2023-04-03T04:11:06;4.88;;;2.28;;
37239;SDS011;23130;48.760;9.178;2023-04-03T04:13:31;4.47;;;2.58;;
37239;SDS011;23130;48.760;9.178;2023-04-03T04:15:57;3.30;;;1.90;;
37239;SDS011;23130;48.760;9.178;2023-04-03T04:18:23;4.05;;;1.92;;
37239;SDS011;23130;48.760;9.178;2023-04-03T04:20:49;4.20;;;2.13;;
37239;SDS011;23130;48.760;9.178;2023-04-03T04:23:15;4.70;;;2.58;;
37239;SDS011;23130;48.760;9.178;2023-04-03T04:25:43;3.08;;;2.05;;
37239;SDS011;23130;48.760;9.178;2023-04-03T04:28:10;4.97;;;2.13;;
37239;SDS011;23130;48.760;9.178;2023-04-03T04:30:36;3.42;;;1.70;;
37239;SDS011;23130;48.760;9.178;2023-04-03T04:33:01;6.40;;;1.80;;
37239;SDS011;23130;48.760;9.178;2023-04-03T04:35:27;3.55;;;1.95;;
37239;SDS011;23130;48.760;9.178;2023-04-03T04:37:53;3.60;;;1.92;;
37239;SDS011;23130;48.760;9.178;2023-04-03T04:40:18;4.15;;;1.80;;
37239;SDS011;23130;48.760;9.178;2023-04-03T04:42:44;3.58;;;1.80;;
37239;SDS011;23130;48.760;9.178;2023-04-03T04:45:10;2.05;;;1.42;;
37239;SDS011;23130;48.760;9.178;2023-04-03T04:47:35;3.03;;;1.52;;
37239;SDS011;23130;48.760;9.178;2023-04-03T04:50:01;3.75;;;1.77;;
37239;SDS011;23130;48.760;9.178;2023-04-03T04:52:26;2.53;;;2.00;;
37239;SDS011;23130;48.760;9.178;2023-04-03T04:54:52;3.38;;;1.73;;
37239;SDS011;23130;48.760;9.178;2023-04-03T04:57:17;3.60;;;2.20;;
37239;SDS011;23130;48.760;9.178;2023-04-03T04:59:43;3.92;;;1.75;;
37239;SDS011;23130;48.760;9.178;2023-04-03T05:02:09;6.88;;;1.75;;
37239;SDS011;23130;48.760;9.178;2023-04-03T05:04:34;3.60;;;2.03;;
37239;SDS011;23130;48.760;9.178;2023-04-03T05:07:00;1.95;;;1.25;;
37239;SDS011;23130;48.760;9.178;2023-04-03T05:09:26;3.83;;;1.80;;
37239;SDS011;23130;48.760;9.178;2023-04-03T05:14:20;2.53;;;1.92;;
37239;SDS011;23130;48.760;9.178;2023-04-03T05:16:46;2.60;;;1.52;;
37239;SDS011;23130;48.760;9.178;2023-04-03T05:19:12;2.60;;;1.65;;
37239;SDS011;23130;48.760;9.178;2023-04-03T05:21:38;3.00;;;2.28;;
37239;SDS011;23130;48.760;9.178;2023-04-03T05:24:04;3.78;;;1.90;;
37239;SDS011;23130;48.760;9.178;2023-04-03T05:26:34;2.40;;;1.55;;
37239;SDS011;23130;48.760;9.178;2023-04-03T05:28:59;4.45;;;1.83;;
37239;SDS011;23130;48.760;9.178;2023-04-03T05:31:25;5.00;;;1.60;;
37239;SDS011;23130;48.760;9.178;2023-04-03T05:33:54;5.40;;;2.22;;
37239;SDS011;23130;48.760;9.178;2023-04-03T05:36:19;3.80;;;1.92;;
37239;SDS011;23130;48.760;9.178;2023-04-03T05:38:45;3.70;;;2.25;;
37239;SDS011;23130;48.760;9.178;2023-04-03T05:41:11;3.00;;;1.70;;
37239;SDS011;23130;48.760;9.178;2023-04-03T05:43:36;2.97;;;1.63;;
37239;SDS011;23130;48.760;9.178;2023-04-03T05:46:03;4.25;;;2.30;;
37239;SDS011;23130;48.760;9.178;2023-04-03T05:48:33;2.72;;;1.67;;
37239;SDS011;23130;48.760;9.178;2023-04-03T05:50:59;3.83;;;1.45;;
37239;SDS011;23130;48.760;9.178;2023-04-03T05:53:27;4.20;;;2.08;;
37239;SDS011;23130;48.760;9.178;2023-04-03T05:55:54;4.65;;;2.00;;
37239;SDS011;23130;48.760;9.178;2023-04-03T05:58:20;1.83;;;1.20;;
37239;SDS011;23130;48.760;9.178;2023-04-03T06:00:45;3.33;;;2.05;;
37239;SDS011;23130;48.760;9.178;2023-04-03T06:03:11;3.63;;;2.17;;
37239;SDS011;23130;48.760;9.178;2023-04-03T06:05:36;5.05;;;2.40;;
37239;SDS011;23130;48.760;9.178;2023-04-03T06:08:02;10.60;;;3.53;;
37239;SDS011;23130;48.760;9.178;2023-04-03T06:10:28;5.13;;;1.95;;
37239;SDS011;23130;48.760;9.178;2023-04-03T06:12:54;2.92;;;1.73;;
37239;SDS011;23130;48.760;9.178;2023-04-03T06:15:19;2.50;;;1.67;;
37239;SDS011;23130;48.760;9.178;2023-04-03T06:17:47;2.78;;;1.58;;
37239;SDS011;23130;48.760;9.178;2023-04-03T06:20:12;3.72;;;1.30;;
37239;SDS011;23130;48.760;9.178;2023-04-03T06:22:38;3.40;;;1.80;;
37239;SDS011;23130;48.760;9.178;2023-04-03T06:25:04;5.00;;;1.95;;
37239;SDS011;23130;48.760;9.178;2023-04-03T06:27:31;5.75;;;1.52;;
37239;SDS011;23130;48.760;9.178;2023-04-03T06:29:56;4.22;;;1.70;;
37239;SDS011;23130;48.760;9.178;2023-04-03T06:32:22;3.60;;;2.05;;
37239;SDS011;23130;48.760;9.178;2023-04-03T06:34:48;3.05;;;2.17;;
37239;SDS011;23130;48.760;9.178;2023-04-03T06:37:17;3.65;;;1.98;;
37239;SDS011;23130;48.760;9.178;2023-04-03T06:39:43;4.20;;;1.67;;
37239;SDS011;23130;48.760;9.178;2023-04-03T06:42:10;3.42;;;1.95;;
37239;SDS011;23130;48.760;9.178;2023-04-03T06:44:36;5.43;;;2.08;;
37239;SDS011;23130;48.760;9.178;2023-04-03T06:47:01;5.10;;;2.10;;
37239;SDS011;23130;48.760;9.178;2023-04-03T06:49:27;5.38;;;2.30;;
37239;SDS011;23130;48.760;9.178;2023-04-03T06:51:53;5.18;;;2.25;;
37239;SDS011;23130;48.760;9.178;2023-04-03T06:54:20;8.10;;;1.98;;
37239;SDS011;23130;48.760;9.178;2023-04-03T06:56:46;5.38;;;2.40;;
37239;SDS011;23130;48.760;9.178;2023-04-03T06:59:11;4.00;;;1.95;;
37239;SDS011;23130;48.760;9.178;2023-04-03T07:01:39;3.63;;;2.03;;
37239;SDS011;23130;48.760;9.178;2023-04-03T07:04:05;2.53;;;1.67;;
37239;SDS011;23130;48.760;9.178;2023-04-03T07:06:31;4.25;;;1.83;;
37239;SDS011;23130;48.760;9.178;2023-04-03T07:08:58;5.30;;;2.00;;
37239;SDS011;23130;48.760;9.178;2023-04-03T07:11:24;4.03;;;2.40;;
37239;SDS011;23130;48.760;9.178;2023-04-03T07:13:51;4.10;;;1.90;;
37239;SDS011;23130;48.760;9.178;2023-04-03T07:16:17;5.07;;;2.00;;
37239;SDS011;23130;48.760;9.178;2023-04-03T07:18:43;4.32;;;1.88;;
37239;SDS011;23130;48.760;9.178;2023-04-03T07:21:09;4.78;;;1.88;;
37239;SDS011;23130;48.760;9.178;2023-04-03T07:23:35;3.58;;;2.38;;
37239;SDS011;23130;48.760;9.178;2023-04-03T07:26:01;5.60;;;1.88;;
37239;SDS011;23130;48.760;9.178;2023-04-03T07:28:27;3.08;;;1.67;;
37239;SDS011;23130;48.760;9.178;2023-04-03T07:30:54;3.28;;;1.70;;
37239;SDS011;23130;48.760;9.178;2023-04-03T07:33:25;4.40;;;2.33;;
37239;SDS011;23130;48.760;9.178;2023-04-03T07:35:51;4.78;;;2.00;;
37239;SDS011;23130;48.760;9.178;2023-04-03T07:38:17;5.45;;;1.80;;
37239;SDS011;23130;48.760;9.178;2023-04-03T07:40:46;4.38;;;1.88;;
37239;SDS011;23130;48.760;9.178;2023-04-03T07:43:13;3.30;;;2.13;;
37239;SDS011;23130;48.760;9.178;2023-04-03T07:45:39;3.50;;;1.90;;
37239;SDS011;23130;48.760;9.178;2023-04-03T07:48:05;2.40;;;1.60;;
37239;SDS011;23130;48.760;9.178;2023-04-03T07:50:31;4.53;;;2.13;;
37239;SDS011;23130;48.760;9.178;2023-04-03T07:52:57;5.85;;;2.17;;
37239;SDS011;23130;48.760;9.178;2023-04-03T07:55:23;5.75;;;2.13;;
37239;SDS011;23130;48.760;9.178;2023-04-03T07:57:50;4.97;;;1.83;;
37239;SDS011;23130;48.760;9.178;2023-04-03T08:00:15;3.47;;;2.00;;
37239;SDS011;23130;48.760;9.178;2023-04-03T08:02:42;3.08;;;1.83;;
37239;SDS011;23130;48.760;9.178;2023-04-03T08:05:09;4.18;;;1.60;;
37239;SDS011;23130;48.760;9.178;2023-04-03T08:07:36;3.78;;;1.95;;
37239;SDS011;23130;48.760;9.178;2023-04-03T08:10:02;4.85;;;1.73;;
37239;SDS011;23130;48.760;9.178;2023-04-03T08:12:28;2.78;;;1.77;;
37239;SDS011;23130;48.760;9.178;2023-04-03T08:14:55;3.28;;;2.05;;
37239;SDS011;23130;48.760;9.178;2023-04-03T08:17:20;6.22;;;2.00;;
37239;SDS011;23130;48.760;9.178;2023-04-03T08:19:46;5.60;;;2.17;;
37239;SDS011;23130;48.760;9.178;2023-04-03T08:22:12;3.33;;;1.80;;
37239;SDS011;23130;48.760;9.178;2023-04-03T08:24:37;5.30;;;2.00;;
37239;SDS011;23130;48.760;9.178;2023-04-03T08:27:03;5.68;;;2.05;;
37239;SDS011;23130;48.760;9.178;2023-04-03T08:29:28;3.40;;;2.10;;
37239;SDS011;23130;48.760;9.178;2023-04-03T08:31:54;6.53;;;2.22;;
37239;SDS011;23130;48.760;9.178;2023-04-03T08:34:20;5.90;;;2.25;;
37239;SDS011;23130;48.760;9.178;2023-04-03T08:36:46;3.17;;;1.98;;
37239;SDS011;23130;48.760;9.178;2023-04-03T08:39:12;9.10;;;2.67;;
37239;SDS011;23130;48.760;9.178;2023-04-03T08:41:41;6.20;;;2.25;;
37239;SDS011;23130;48.760;9.178;2023-04-03T08:49:26;4.93;;;2.17;;
37239;SDS011;23130;48.760;9.178;2023-04-03T08:51:57;3.88;;;1.63;;
37239;SDS011;23130;48.760;9.178;2023-04-03T08:54:29;3.13;;;1.95;;
37239;SDS011;23130;48.760;9.178;2023-04-03T08:56:58;4.18;;;1.83;;
37239;SDS011;23130;48.760;9.178;2023-04-03T08:59:29;5.68;;;2.55;;
37239;SDS011;23130;48.760;9.178;2023-04-03T09:01:59;7.65;;;2.50;;
37239;SDS011;23130;48.760;9.178;2023-04-03T09:04:29;4.03;;;1.88;;
37239;SDS011;23130;48.760;9.178;2023-04-03T09:06:58;5.28;;;2.30;;
37239;SDS011;23130;48.760;9.178;2023-04-03T09:10:04;3.97;;;1.90;;
37239;SDS011;23130;48.760;9.178;2023-04-03T09:12:27;3.20;;;1.77;;
37239;SDS011;23130;48.760;9.178;2023-04-03T09:17:49;4.80;;;1.80;;
37239;SDS011;23130;48.760;9.178;2023-04-03T09:20:39;6.15;;;1.40;;
37239;SDS011;23130;48.760;9.178;2023-04-03T09:23:26;4.43;;;1.98;;
37239;SDS011;23130;48.760;9.178;2023-04-03T09:26:00;2.78;;;1.70;;
37239;SDS011;23130;48.760;9.178;2023-04-03T09:28:30;3.25;;;2.25;;
37239;SDS011;23130;48.760;9.178;2023-04-03T09:30:59;4.80;;;3.25;;
37239;SDS011;23130;48.760;9.178;2023-04-03T09:33:25;3.50;;;1.73;;
37239;SDS011;23130;48.760;9.178;2023-04-03T09:35:52;4.05;;;2.22;;
37239;SDS011;23130;48.760;9.178;2023-04-03T09:38:19;5.18;;;1.50;;
37239;SDS011;23130;48.760;9.178;2023-04-03T09:40:50;5.45;;;1.38;;
37239;SDS011;23130;48.760;9.178;2023-04-03T09:43:30;4.60;;;1.60;;
37239;SDS011;23130;48.760;9.178;2023-04-03T09:46:17;5.10;;;1.77;;
37239;SDS011;23130;48.760;9.178;2023-04-03T09:48:56;4.53;;;1.88;;
37239;SDS011;23130;48.760;9.178;2023-04-03T09:51:27;3.15;;;1.55;;
37239;SDS011;23130;48.760;9.178;2023-04-03T09:53:54;2.60;;;1.80;;
37239;SDS011;23130;48.760;9.178;2023-04-03T09:56:25;2.63;;;1.58;;
37239;SDS011;23130;48.760;9.178;2023-04-03T10:01:29;3.08;;;1.50;;
37239;SDS011;23130;48.760;9.178;2023-04-03T10:04:06;2.83;;;1.60;;
37239;SDS011;23130;48.760;9.178;2023-04-03T10:06:35;4.18;;;1.75;;
37239;SDS011;23130;48.760;9.178;2023-04-03T10:09:07;4.65;;;1.70;;
37239;SDS011;23130;48.760;9.178;2023-04-03T10:11:47;3.13;;;1.70;;
37239;SDS011;23130;48.760;9.178;2023-04-03T10:14:30;4.30;;;2.22;;
37239;SDS011;23130;48.760;9.178;2023-04-03T10:16:59;3.83;;;1.50;;
37239;SDS011;23130;48.760;9.178;2023-04-03T10:22:02;2.80;;;1.50;;
37239;SDS011;23130;48.760;9.178;2023-04-03T10:24:44;2.20;;;1.50;;
37239;SDS011;23130;48.760;9.178;2023-04-03T10:30:28;2.88;;;1.55;;
37239;SDS011;23130;48.760;9.178;2023-04-03T10:43:59;3.30;;;1.30;;
37239;SDS011;23130;48.760;9.178;2023-04-03T10:46:49;8.80;;;2.53;;
37239;SDS011;23130;48.760;9.178;2023-04-03T10:49:25;3.47;;;1.58;;
37239;SDS011;23130;48.760;9.178;2023-04-03T10:52:27;6.20;;;1.73;;
37239;SDS011;23130;48.760;9.178;2023-04-03T10:57:34;6.18;;;1.73;;
37239;SDS011;23130;48.760;9.178;2023-04-03T11:00:07;3.65;;;2.03;;
37239;SDS011;23130;48.760;9.178;2023-04-03T11:02:54;5.07;;;1.40;;
37239;SDS011;23130;48.760;9.178;2023-04-03T11:08:05;2.60;;;1.38;;
37239;SDS011;23130;48.760;9.178;2023-04-03T11:10:55;5.53;;;1.67;;
37239;SDS011;23130;48.760;9.178;2023-04-03T11:13:34;5.15;;;1.60;;
37239;SDS011;23130;48.760;9.178;2023-04-03T11:16:05;4.75;;;1.30;;
37239;SDS011;23130;48.760;9.178;2023-04-03T11:18:46;3.22;;;1.38;;
37239;SDS011;23130;48.760;9.178;2023-04-03T11:21:19;2.63;;;1.13;;
37239;SDS011;23130;48.760;9.178;2023-04-03T11:23:49;4.38;;;1.70;;
37239;SDS011;23130;48.760;9.178;2023-04-03T11:26:19;3.15;;;0.90;;
37239;SDS011;23130;48.760;9.178;2023-04-03T11:28:52;1.90;;;1.10;;
37239;SDS011;23130;48.760;9.178;2023-04-03T11:34:34;5.45;;;1.25;;
37239;SDS011;23130;48.760;9.178;2023-04-03T11:37:23;2.97;;;0.93;;
37239;SDS011;23130;48.760;9.178;2023-04-03T11:39:58;5.35;;;1.40;;
37239;SDS011;23130;48.760;9.178;2023-04-03T11:42:32;4.80;;;1.50;;
37239;SDS011;23130;48.760;9.178;2023-04-03T11:47:51;3.33;;;1.23;;
37239;SDS011;23130;48.760;9.178;2023-04-03T11:51:02;3.22;;;1.23;;
37239;SDS011;23130;48.760;9.178;2023-04-03T12:03:29;3.63;;;0.95;;
37239;SDS011;23130;48.760;9.178;2023-04-03T12:11:21;4.20;;;1.20;;
37239;SDS011;23130;48.760;9.178;2023-04-03T12:26:30;6.30;;;1.67;;
37239;SDS011;23130;48.760;9.178;2023-04-03T12:29:17;5.97;;;1.50;;
37239;SDS011;23130;48.760;9.178;2023-04-03T12:37:37;2.67;;;1.30;;
37239;SDS011;23130;48.760;9.178;2023-04-03T12:47:36;4.82;;;1.58;;
37239;SDS011;23130;48.760;9.178;2023-04-03T12:50:13;4.70;;;1.40;;
37239;SDS011;23130;48.760;9.178;2023-04-03T12:52:45;3.35;;;0.90;;
37239;SDS011;23130;48.760;9.178;2023-04-03T12:55:16;3.78;;;0.80;;
37239;SDS011;23130;48.760;9.178;2023-04-03T12:57:44;3.53;;;1.85;;
37239;SDS011;23130;48.760;9.178;2023-04-03T13:02:46;6.25;;;0.98;;
37239;SDS011;23130;48.760;9.178;2023-04-03T13:05:16;3.72;;;1.23;;
37239;SDS011;23130;48.760;9.178;2023-04-03T13:07:43;1.88;;;1.08;;
37239;SDS011;23130;48.760;9.178;2023-04-03T13:10:15;5.45;;;1.52;;
37239;SDS011;23130;48.760;9.178;2023-04-03T13:12:52;1.80;;;0.90;;
37239;SDS011;23130;48.760;9.178;2023-04-03T13:15:22;3.25;;;1.30;;
37239;SDS011;23130;48.760;9.178;2023-04-03T13:17:51;3.15;;;1.52;;
37239;SDS011;23130;48.760;9.178;2023-04-03T13:25:16;3.45;;;1.35;;
37239;SDS011;23130;48.760;9.178;2023-04-03T13:27:44;2.67;;;1.30;;
37239;SDS011;23130;48.760;9.178;2023-04-03T13:32:49;6.93;;;1.58;;
37239;SDS011;23130;48.760;9.178;2023-04-03T13:35:26;4.97;;;1.10;;
37239;SDS011;23130;48.760;9.178;2023-04-03T13:37:55;3.92;;;1.08;;
37239;SDS011;23130;48.760;9.178;2023-04-03T13:40:22;4.25;;;1.58;;
37239;SDS011;23130;48.760;9.178;2023-04-03T13:42:57;3.58;;;1.27;;
37239;SDS011;23130;48.760;9.178;2023-04-03T13:45:26;4.93;;;1.30;;
37239;SDS011;23130;48.760;9.178;2023-04-03T13:48:06;4.05;;;1.50;;
37239;SDS011;23130;48.760;9.178;2023-04-03T13:51:26;2.67;;;1.00;;
37239;SDS011;23130;48.760;9.178;2023-04-03T13:53:51;4.40;;;1.42;;
37239;SDS011;23130;48.760;9.178;2023-04-03T13:56:24;4.97;;;1.27;;
37239;SDS011;23130;48.760;9.178;2023-04-03T14:01:50;2.30;;;1.25;;
37239;SDS011;23130;48.760;9.178;2023-04-03T14:07:06;2.35;;;1.30;;
37239;SDS011;23130;48.760;9.178;2023-04-03T14:09:32;2.80;;;1.40;;
37239;SDS011;23130;48.760;9.178;2023-04-03T14:11:59;2.13;;;1.30;;
37239;SDS011;23130;48.760;9.178;2023-04-03T14:14:32;3.13;;;1.70;;
37239;SDS011;23130;48.760;9.178;2023-04-03T14:16:59;3.30;;;1.25;;
37239;SDS011;23130;48.760;9.178;2023-04-03T14:19:32;2.80;;;1.40;;
37239;SDS011;23130;48.760;9.178;2023-04-03T14:22:00;2.45;;;1.40;;
37239;SDS011;23130;48.760;9.178;2023-04-03T14:24:31;3.45;;;1.75;;
37239;SDS011;23130;48.760;9.178;2023-04-03T14:26:57;3.38;;;1.42;;
37239;SDS011;23130;48.760;9.178;2023-04-03T14:29:23;4.65;;;1.83;;
37239;SDS011;23130;48.760;9.178;2023-04-03T14:31:49;3.75;;;1.60;;
37239;SDS011;23130;48.760;9.178;2023-04-03T14:34:15;2.90;;;1.52;;
37239;SDS011;23130;48.760;9.178;2023-04-03T14:36:42;3.10;;;1.52;;
37239;SDS011;23130;48.760;9.178;2023-04-03T14:39:10;2.88;;;1.40;;
37239;SDS011;23130;48.760;9.178;2023-04-03T14:44:08;2.95;;;1.20;;
37239;SDS011;23130;48.760;9.178;2023-04-03T14:46:35;3.10;;;1.65;;
37239;SDS011;23130;48.760;9.178;2023-04-03T14:49:02;2.55;;;1.33;;
37239;SDS011;23130;48.760;9.178;2023-04-03T14:51:32;5.43;;;1.58;;
37239;SDS011;23130;48.760;9.178;2023-04-03T14:53:58;2.90;;;1.60;;
37239;SDS011;23130;48.760;9.178;2023-04-03T14:56:27;3.45;;;1.50;;
37239;SDS011;23130;48.760;9.178;2023-04-03T14:58:55;5.53;;;1.30;;
37239;SDS011;23130;48.760;9.178;2023-04-03T15:01:23;2.80;;;1.10;;
37239;SDS011;23130;48.760;9.178;2023-04-03T15:03:50;3.80;;;1.20;;
37239;SDS011;23130;48.760;9.178;2023-04-03T15:06:15;2.95;;;1.20;;
37239;SDS011;23130;48.760;9.178;2023-04-03T15:08:41;6.68;;;1.52;;
37239;SDS011;23130;48.760;9.178;2023-04-03T15:11:11;2.25;;;1.25;;
37239;SDS011;23130;48.760;9.178;2023-04-03T15:13:37;4.20;;;1.55;;
37239;SDS011;23130;48.760;9.178;2023-04-03T15:16:03;2.97;;;1.50;;
37239;SDS011;23130;48.760;9.178;2023-04-03T15:18:40;2.03;;;1.13;;
37239;SDS011;23130;48.760;9.178;2023-04-03T15:21:06;2.08;;;1.08;;
37239;SDS011;23130;48.760;9.178;2023-04-03T15:23:31;1.30;;;1.00;;
37239;SDS011;23130;48.760;9.178;2023-04-03T15:25:57;2.95;;;1.20;;
37239;SDS011;23130;48.760;9.178;2023-04-03T15:28:25;2.20;;;1.15;;
37239;SDS011;23130;48.760;9.178;2023-04-03T15:30:57;1.65;;;1.15;;
37239;SDS011;23130;48.760;9.178;2023-04-03T15:33:23;3.42;;;1.27;;
37239;SDS011;23130;48.760;9.178;2023-04-03T15:35:49;2.10;;;1.00;;
37239;SDS011;23130;48.760;9.178;2023-04-03T15:38:15;3.38;;;1.15;;
37239;SDS011;23130;48.760;9.178;2023-04-03T15:40:40;3.63;;;1.23;;
37239;SDS011;23130;48.760;9.178;2023-04-03T15:43:07;2.65;;;1.25;;
37239;SDS011;23130;48.760;9.178;2023-04-03T15:45:33;3.42;;;1.23;;
37239;SDS011;23130;48.760;9.178;2023-04-03T15:48:01;4.00;;;1.67;;
37239;SDS011;23130;48.760;9.178;2023-04-03T15:50:27;2.45;;;1.30;;
37239;SDS011;23130;48.760;9.178;2023-04-03T15:52:53;3.30;;;1.33;;
37239;SDS011;23130;48.760;9.178;2023-04-03T15:55:23;4.55;;;1.50;;
37239;SDS011;23130;48.760;9.178;2023-04-03T15:57:49;3.08;;;1.40;;
37239;SDS011;23130;48.760;9.178;2023-04-03T16:00:15;3.88;;;1.23;;
37239;SDS011;23130;48.760;9.178;2023-04-03T16:02:43;2.92;;;0.90;;
37239;SDS011;23130;48.760;9.178;2023-04-03T16:05:09;2.42;;;1.40;;
37239;SDS011;23130;48.760;9.178;2023-04-03T16:07:37;3.60;;;1.50;;
37239;SDS011;23130;48.760;9.178;2023-04-03T16:10:06;2.58;;;1.20;;
37239;SDS011;23130;48.760;9.178;2023-04-03T16:12:32;2.53;;;1.10;;
37239;SDS011;23130;48.760;9.178;2023-04-03T16:14:58;6.07;;;1.70;;
37239;SDS011;23130;48.760;9.178;2023-04-03T16:17:24;2.22;;;1.00;;
37239;SDS011;23130;48.760;9.178;2023-04-03T16:19:51;2.75;;;1.40;;
37239;SDS011;23130;48.760;9.178;2023-04-03T16:22:17;2.95;;;1.75;;
37239;SDS011;23130;48.760;9.178;2023-04-03T16:24:43;2.65;;;1.40;;
37239;SDS011;23130;48.760;9.178;2023-04-03T16:27:08;3.33;;;1.25;;
37239;SDS011;23130;48.760;9.178;2023-04-03T16:29:34;3.13;;;1.35;;
37239;SDS011;23130;48.760;9.178;2023-04-03T16:32:00;3.20;;;1.58;;
37239;SDS011;23130;48.760;9.178;2023-04-03T16:34:26;4.35;;;1.40;;
37239;SDS011;23130;48.760;9.178;2023-04-03T16:36:55;4.28;;;1.55;;
37239;SDS011;23130;48.760;9.178;2023-04-03T16:39:20;3.38;;;0.85;;
37239;SDS011;23130;48.760;9.178;2023-04-03T16:41:46;3.63;;;1.10;;
37239;SDS011;23130;48.760;9.178;2023-04-03T16:44:11;2.05;;;0.82;;